sensor_id;sensor_type;location;lat;lon;timestamp;temperature;humidity
6988;DHT22;3534;49.960;8.018;2023-05-10T00:01:43;15.50;99.90
6988;DHT22;3534;49.960;8.018;2023-05-10T00:04:10;15.50;99.90
6988;DHT22;3534;49.960;8.018;2023-05-10T00:06:36;15.50;99.90
6988;DHT22;3534;49.960;8.018;2023-05-10T00:09:03;15.50;99.90
6988;DHT22;3534;49.960;8.018;2023-05-10T00:11:30;15.50;99.90
6988;DHT22;3534;49.960;8.018;2023-05-10T00:13:56;15.50;99.90
6988;DHT22;3534;49.960;8.018;2023-05-10T00:16:23;15.50;99.90
6988;DHT22;3534;49.960;8.018;2023-05-10T00:18:51;15.40;99.90
6988;DHT22;3534;49.960;8.018;2023-05-10T00:21:18;15.40;99.90
6988;DHT22;3534;49.960;8.018;2023-05-10T00:23:44;15.40;99.90
6988;DHT22;3534;49.960;8.018;2023-05-10T00:26:11;15.30;99.90
6988;DHT22;3534;49.960;8.018;2023-05-10T00:28:38;15.40;99.90
6988;DHT22;3534;49.960;8.018;2023-05-10T00:31:04;15.40;99.90
6988;DHT22;3534;49.960;8.018;2023-05-10T00:33:31;15.40;99.90
6988;DHT22;3534;49.960;8.018;2023-05-10T00:35:59;15.40;99.90
6988;DHT22;3534;49.960;8.018;2023-05-10T00:38:25;15.40;99.90
6988;DHT22;3534;49.960;8.018;2023-05-10T00:40:52;15.40;99.90
6988;DHT22;3534;49.960;8.018;2023-05-10T00:43:19;15.40;99.90
6988;DHT22;3534;49.960;8.018;2023-05-10T00:45:45;15.40;99.90
6988;DHT22;3534;49.960;8.018;2023-05-10T00:48:13;15.40;99.90
6988;DHT22;3534;49.960;8.018;2023-05-10T00:50:40;15.40;99.90
6988;DHT22;3534;49.960;8.018;2023-05-10T00:53:08;15.40;99.90
6988;DHT22;3534;49.960;8.018;2023-05-10T00:55:36;15.40;99.90
6988;DHT22;3534;49.960;8.018;2023-05-10T00:58:03;15.40;99.90
6988;DHT22;3534;49.960;8.018;2023-05-10T01:00:29;15.30;99.90
6988;DHT22;3534;49.960;8.018;2023-05-10T01:02:56;15.40;99.90
6988;DHT22;3534;49.960;8.018;2023-05-10T01:05:23;15.30;99.90
6988;DHT22;3534;49.960;8.018;2023-05-10T01:07:50;15.30;99.90
6988;DHT22;3534;49.960;8.018;2023-05-10T01:10:18;15.30;99.90
6988;DHT22;3534;49.960;8.018;2023-05-10T01:12:46;15.30;99.90
6988;DHT22;3534;49.960;8.018;2023-05-10T01:15:14;15.30;99.90
6988;DHT22;3534;49.960;8.018;2023-05-10T01:17:44;15.30;99.90
6988;DHT22;3534;49.960;8.018;2023-05-10T01:20:12;15.30;99.90
6988;DHT22;3534;49.960;8.018;2023-05-10T01:23:16;15.30;99.90
6988;DHT22;3534;49.960;8.018;2023-05-10T01:26:14;15.30;99.90
6988;DHT22;3534;49.960;8.018;2023-05-10T01:28:58;15.30;99.90
6988;DHT22;3534;49.960;8.018;2023-05-10T01:31:59;15.30;99.90
6988;DHT22;3534;49.960;8.018;2023-05-10T01:34:34;15.30;99.90
6988;DHT22;3534;49.960;8.018;2023-05-10T01:37:04;15.40;99.90
6988;DHT22;3534;49.960;8.018;2023-05-10T01:39:38;15.40;99.90
6988;DHT22;3534;49.960;8.018;2023-05-10T01:42:09;15.30;99.90
6988;DHT22;3534;49.960;8.018;2023-05-10T01:44:39;15.30;99.90
6988;DHT22;3534;49.960;8.018;2023-05-10T01:47:12;15.30;99.90
6988;DHT22;3534;49.960;8.018;2023-05-10T01:49:43;15.30;99.90
6988;DHT22;3534;49.960;8.018;2023-05-10T01:52:14;15.20;99.90
6988;DHT22;3534;49.960;8.018;2023-05-10T01:54:44;15.20;99.90
6988;DHT22;3534;49.960;8.018;2023-05-10T01:57:16;15.20;99.90
6988;DHT22;3534;49.960;8.018;2023-05-10T01:59:45;15.20;99.90
6988;DHT22;3534;49.960;8.018;2023-05-10T02:02:17;15.20;99.90
6988;DHT22;3534;49.960;8.018;2023-05-10T02:04:45;15.20;99.90
6988;DHT22;3534;49.960;8.018;2023-05-10T02:07:14;15.20;99.90
6988;DHT22;3534;49.960;8.018;2023-05-10T02:09:42;15.20;99.90
6988;DHT22;3534;49.960;8.018;2023-05-10T02:12:13;15.30;99.90
6988;DHT22;3534;49.960;8.018;2023-05-10T02:14:41;15.30;99.90
6988;DHT22;3534;49.960;8.018;2023-05-10T02:17:09;15.40;99.90
6988;DHT22;3534;49.960;8.018;2023-05-10T02:19:41;15.40;99.90
6988;DHT22;3534;49.960;8.018;2023-05-10T02:22:09;15.40;99.90
6988;DHT22;3534;49.960;8.018;2023-05-10T02:24:36;15.50;99.90
6988;DHT22;3534;49.960;8.018;2023-05-10T02:27:05;15.40;99.90
6988;DHT22;3534;49.960;8.018;2023-05-10T02:29:32;15.50;99.90
6988;DHT22;3534;49.960;8.018;2023-05-10T02:32:00;15.50;99.90
6988;DHT22;3534;49.960;8.018;2023-05-10T02:34:27;15.50;99.90
6988;DHT22;3534;49.960;8.018;2023-05-10T02:36:56;15.50;99.90
6988;DHT22;3534;49.960;8.018;2023-05-10T02:39:25;15.40;99.90
6988;DHT22;3534;49.960;8.018;2023-05-10T02:41:53;15.40;99.90
6988;DHT22;3534;49.960;8.018;2023-05-10T02:44:22;15.40;99.90
6988;DHT22;3534;49.960;8.018;2023-05-10T02:46:49;15.40;99.90
6988;DHT22;3534;49.960;8.018;2023-05-10T02:49:16;15.40;99.90
6988;DHT22;3534;49.960;8.018;2023-05-10T02:51:47;15.40;99.90
6988;DHT22;3534;49.960;8.018;2023-05-10T02:54:19;15.40;99.90
6988;DHT22;3534;49.960;8.018;2023-05-10T02:56:50;15.40;99.90
6988;DHT22;3534;49.960;8.018;2023-05-10T02:59:17;15.40;99.90
6988;DHT22;3534;49.960;8.018;2023-05-10T03:01:44;15.40;99.90
6988;DHT22;3534;49.960;8.018;2023-05-10T03:04:10;15.40;99.90
6988;DHT22;3534;49.960;8.018;2023-05-10T03:06:37;15.40;99.90
6988;DHT22;3534;49.960;8.018;2023-05-10T03:09:04;15.40;99.90
6988;DHT22;3534;49.960;8.018;2023-05-10T03:11:43;15.40;99.90
6988;DHT22;3534;49.960;8.018;2023-05-10T03:14:22;15.30;99.90
6988;DHT22;3534;49.960;8.018;2023-05-10T03:16:56;15.30;99.90
6988;DHT22;3534;49.960;8.018;2023-05-10T03:19:26;15.30;99.90
6988;DHT22;3534;49.960;8.018;2023-05-10T03:21:56;15.30;99.90
6988;DHT22;3534;49.960;8.018;2023-05-10T03:24:27;15.30;99.90
6988;DHT22;3534;49.960;8.018;2023-05-10T03:26:56;15.30;99.90
6988;DHT22;3534;49.960;8.018;2023-05-10T03:29:28;15.30;99.90
6988;DHT22;3534;49.960;8.018;2023-05-10T03:31:57;15.30;99.90
6988;DHT22;3534;49.960;8.018;2023-05-10T03:34:24;15.30;99.90
6988;DHT22;3534;49.960;8.018;2023-05-10T03:36:51;15.30;99.90
6988;DHT22;3534;49.960;8.018;2023-05-10T03:39:18;15.30;99.90
6988;DHT22;3534;49.960;8.018;2023-05-10T03:41:46;15.30;99.90
6988;DHT22;3534;49.960;8.018;2023-05-10T03:44:14;15.30;99.90
6988;DHT22;3534;49.960;8.018;2023-05-10T03:46:41;15.30;99.90
6988;DHT22;3534;49.960;8.018;2023-05-10T03:49:08;15.30;99.90
6988;DHT22;3534;49.960;8.018;2023-05-10T03:51:35;15.20;99.90
6988;DHT22;3534;49.960;8.018;2023-05-10T03:54:01;15.20;99.90
6988;DHT22;3534;49.960;8.018;2023-05-10T03:56:28;15.20;99.90
6988;DHT22;3534;49.960;8.018;2023-05-10T03:58:55;15.20;99.90
6988;DHT22;3534;49.960;8.018;2023-05-10T04:01:23;15.20;99.90
6988;DHT22;3534;49.960;8.018;2023-05-10T04:03:50;15.20;99.90
6988;DHT22;3534;49.960;8.018;2023-05-10T04:06:16;15.20;99.90
6988;DHT22;3534;49.960;8.018;2023-05-10T04:08:43;15.20;99.90
6988;DHT22;3534;49.960;8.018;2023-05-10T04:11:11;15.20;99.90
6988;DHT22;3534;49.960;8.018;2023-05-10T04:13:38;15.20;99.90
6988;DHT22;3534;49.960;8.018;2023-05-10T04:16:05;15.20;99.90
6988;DHT22;3534;49.960;8.018;2023-05-10T04:18:33;15.20;99.90
6988;DHT22;3534;49.960;8.018;2023-05-10T04:21:00;15.10;99.90
6988;DHT22;3534;49.960;8.018;2023-05-10T04:23:27;15.10;99.90
6988;DHT22;3534;49.960;8.018;2023-05-10T04:25:59;15.10;99.90
6988;DHT22;3534;49.960;8.018;2023-05-10T04:28:26;15.10;99.90
6988;DHT22;3534;49.960;8.018;2023-05-10T04:30:52;15.10;99.90
6988;DHT22;3534;49.960;8.018;2023-05-10T04:33:19;15.10;99.90
6988;DHT22;3534;49.960;8.018;2023-05-10T04:35:47;15.10;99.90
6988;DHT22;3534;49.960;8.018;2023-05-10T04:38:14;15.10;99.90
6988;DHT22;3534;49.960;8.018;2023-05-10T04:40:40;15.10;99.90
6988;DHT22;3534;49.960;8.018;2023-05-10T04:43:07;15.00;99.90
6988;DHT22;3534;49.960;8.018;2023-05-10T04:45:33;15.00;99.90
6988;DHT22;3534;49.960;8.018;2023-05-10T04:48:00;15.00;99.90
6988;DHT22;3534;49.960;8.018;2023-05-10T04:50:27;15.00;99.90
6988;DHT22;3534;49.960;8.018;2023-05-10T04:52:55;15.00;99.90
6988;DHT22;3534;49.960;8.018;2023-05-10T04:55:21;15.00;99.90
6988;DHT22;3534;49.960;8.018;2023-05-10T04:57:48;15.00;99.90
6988;DHT22;3534;49.960;8.018;2023-05-10T05:00:15;15.00;99.90
6988;DHT22;3534;49.960;8.018;2023-05-10T05:02:43;15.00;99.90
6988;DHT22;3534;49.960;8.018;2023-05-10T05:05:10;15.00;99.90
6988;DHT22;3534;49.960;8.018;2023-05-10T05:07:37;15.00;99.90
6988;DHT22;3534;49.960;8.018;2023-05-10T05:10:07;15.00;99.90
6988;DHT22;3534;49.960;8.018;2023-05-10T05:12:34;15.00;99.90
6988;DHT22;3534;49.960;8.018;2023-05-10T05:15:01;15.00;99.90
6988;DHT22;3534;49.960;8.018;2023-05-10T05:17:27;15.00;99.90
6988;DHT22;3534;49.960;8.018;2023-05-10T05:19:56;15.00;99.90
6988;DHT22;3534;49.960;8.018;2023-05-10T05:22:23;15.00;99.90
6988;DHT22;3534;49.960;8.018;2023-05-10T05:24:53;15.00;99.90
6988;DHT22;3534;49.960;8.018;2023-05-10T05:27:21;15.00;99.90
6988;DHT22;3534;49.960;8.018;2023-05-10T05:29:49;15.10;99.90
6988;DHT22;3534;49.960;8.018;2023-05-10T05:32:16;15.10;99.90
6988;DHT22;3534;49.960;8.018;2023-05-10T05:34:44;15.20;99.90
6988;DHT22;3534;49.960;8.018;2023-05-10T05:37:13;15.20;99.90
6988;DHT22;3534;49.960;8.018;2023-05-10T05:39:39;15.30;99.90
6988;DHT22;3534;49.960;8.018;2023-05-10T05:42:06;15.30;99.90
6988;DHT22;3534;49.960;8.018;2023-05-10T05:44:34;15.30;99.90
6988;DHT22;3534;49.960;8.018;2023-05-10T05:47:01;15.40;99.90
6988;DHT22;3534;49.960;8.018;2023-05-10T05:49:28;15.40;99.90
6988;DHT22;3534;49.960;8.018;2023-05-10T05:51:58;15.50;99.90
6988;DHT22;3534;49.960;8.018;2023-05-10T05:54:24;15.50;99.90
6988;DHT22;3534;49.960;8.018;2023-05-10T05:56:53;15.50;99.90
6988;DHT22;3534;49.960;8.018;2023-05-10T05:59:20;15.50;99.90
6988;DHT22;3534;49.960;8.018;2023-05-10T06:01:48;15.50;99.90
6988;DHT22;3534;49.960;8.018;2023-05-10T06:04:15;15.60;99.90
6988;DHT22;3534;49.960;8.018;2023-05-10T06:06:42;15.60;99.90
6988;DHT22;3534;49.960;8.018;2023-05-10T06:09:09;15.70;99.90
6988;DHT22;3534;49.960;8.018;2023-05-10T06:11:36;15.70;99.90
6988;DHT22;3534;49.960;8.018;2023-05-10T06:14:04;15.70;99.90
6988;DHT22;3534;49.960;8.018;2023-05-10T06:16:32;15.70;99.90
6988;DHT22;3534;49.960;8.018;2023-05-10T06:19:00;15.70;99.90
6988;DHT22;3534;49.960;8.018;2023-05-10T06:21:27;15.70;99.90
6988;DHT22;3534;49.960;8.018;2023-05-10T06:23:54;15.80;99.90
6988;DHT22;3534;49.960;8.018;2023-05-10T06:26:20;15.80;99.90
6988;DHT22;3534;49.960;8.018;2023-05-10T06:28:47;15.90;99.90
6988;DHT22;3534;49.960;8.018;2023-05-10T06:31:14;15.90;99.90
6988;DHT22;3534;49.960;8.018;2023-05-10T06:33:41;15.90;99.90
6988;DHT22;3534;49.960;8.018;2023-05-10T06:36:09;15.90;99.90
6988;DHT22;3534;49.960;8.018;2023-05-10T06:38:36;16.00;99.90
6988;DHT22;3534;49.960;8.018;2023-05-10T06:41:03;16.00;99.90
6988;DHT22;3534;49.960;8.018;2023-05-10T06:43:29;16.10;99.90
6988;DHT22;3534;49.960;8.018;2023-05-10T06:45:56;16.10;99.90
6988;DHT22;3534;49.960;8.018;2023-05-10T06:48:23;16.10;99.90
6988;DHT22;3534;49.960;8.018;2023-05-10T06:50:50;16.20;99.90
6988;DHT22;3534;49.960;8.018;2023-05-10T06:53:18;16.20;99.90
6988;DHT22;3534;49.960;8.018;2023-05-10T06:55:45;16.20;99.90
6988;DHT22;3534;49.960;8.018;2023-05-10T06:58:11;16.20;99.90
6988;DHT22;3534;49.960;8.018;2023-05-10T07:00:38;16.30;99.90
6988;DHT22;3534;49.960;8.018;2023-05-10T07:03:06;16.30;99.90
6988;DHT22;3534;49.960;8.018;2023-05-10T07:05:32;16.30;99.90
6988;DHT22;3534;49.960;8.018;2023-05-10T07:07:59;16.40;99.90
6988;DHT22;3534;49.960;8.018;2023-05-10T07:10:27;16.50;99.90
6988;DHT22;3534;49.960;8.018;2023-05-10T07:12:55;16.50;99.90
6988;DHT22;3534;49.960;8.018;2023-05-10T07:15:22;16.60;99.90
6988;DHT22;3534;49.960;8.018;2023-05-10T07:17:48;16.60;99.90
6988;DHT22;3534;49.960;8.018;2023-05-10T07:20:17;16.60;99.90
6988;DHT22;3534;49.960;8.018;2023-05-10T07:22:44;16.70;99.90
6988;DHT22;3534;49.960;8.018;2023-05-10T07:25:10;16.70;99.90
6988;DHT22;3534;49.960;8.018;2023-05-10T07:27:39;16.80;99.90
6988;DHT22;3534;49.960;8.018;2023-05-10T07:30:06;16.90;99.90
6988;DHT22;3534;49.960;8.018;2023-05-10T07:32:33;16.80;99.90
6988;DHT22;3534;49.960;8.018;2023-05-10T07:35:00;17.00;99.90
6988;DHT22;3534;49.960;8.018;2023-05-10T07:37:27;16.90;99.90
6988;DHT22;3534;49.960;8.018;2023-05-10T07:39:53;17.00;99.90
6988;DHT22;3534;49.960;8.018;2023-05-10T07:42:21;17.00;99.90
6988;DHT22;3534;49.960;8.018;2023-05-10T07:44:49;17.00;99.90
6988;DHT22;3534;49.960;8.018;2023-05-10T07:47:16;17.00;99.90
6988;DHT22;3534;49.960;8.018;2023-05-10T07:49:43;17.00;99.90
6988;DHT22;3534;49.960;8.018;2023-05-10T07:52:09;17.10;99.90
6988;DHT22;3534;49.960;8.018;2023-05-10T07:54:36;17.10;99.90
6988;DHT22;3534;49.960;8.018;2023-05-10T07:57:03;17.20;99.90
6988;DHT22;3534;49.960;8.018;2023-05-10T07:59:30;17.20;99.90
6988;DHT22;3534;49.960;8.018;2023-05-10T08:01:58;17.20;99.90
6988;DHT22;3534;49.960;8.018;2023-05-10T08:04:26;17.20;99.90
6988;DHT22;3534;49.960;8.018;2023-05-10T08:06:52;17.30;99.90
6988;DHT22;3534;49.960;8.018;2023-05-10T08:09:19;17.30;99.90
6988;DHT22;3534;49.960;8.018;2023-05-10T08:11:49;17.40;99.90
6988;DHT22;3534;49.960;8.018;2023-05-10T08:14:16;17.50;99.90
6988;DHT22;3534;49.960;8.018;2023-05-10T08:16:42;17.50;99.90
6988;DHT22;3534;49.960;8.018;2023-05-10T08:19:10;17.50;99.90
6988;DHT22;3534;49.960;8.018;2023-05-10T08:21:37;17.50;99.90
6988;DHT22;3534;49.960;8.018;2023-05-10T08:24:06;17.50;99.90
6988;DHT22;3534;49.960;8.018;2023-05-10T08:26:33;17.50;99.90
6988;DHT22;3534;49.960;8.018;2023-05-10T08:29:00;17.50;99.90
6988;DHT22;3534;49.960;8.018;2023-05-10T08:31:26;17.50;99.90
6988;DHT22;3534;49.960;8.018;2023-05-10T08:33:53;17.50;99.90
6988;DHT22;3534;49.960;8.018;2023-05-10T08:36:21;17.50;99.90
6988;DHT22;3534;49.960;8.018;2023-05-10T08:38:50;17.50;99.90
6988;DHT22;3534;49.960;8.018;2023-05-10T08:41:18;17.60;99.90
6988;DHT22;3534;49.960;8.018;2023-05-10T08:43:46;17.70;99.90
6988;DHT22;3534;49.960;8.018;2023-05-10T08:46:16;17.70;99.90
6988;DHT22;3534;49.960;8.018;2023-05-10T08:48:43;17.60;99.90
6988;DHT22;3534;49.960;8.018;2023-05-10T08:51:13;17.60;99.90
6988;DHT22;3534;49.960;8.018;2023-05-10T08:53:41;17.50;99.90
6988;DHT22;3534;49.960;8.018;2023-05-10T08:56:08;17.50;99.90
6988;DHT22;3534;49.960;8.018;2023-05-10T08:58:36;17.40;99.90
6988;DHT22;3534;49.960;8.018;2023-05-10T09:01:03;17.40;99.90
6988;DHT22;3534;49.960;8.018;2023-05-10T09:03:31;17.40;99.90
6988;DHT22;3534;49.960;8.018;2023-05-10T09:05:58;17.50;99.90
6988;DHT22;3534;49.960;8.018;2023-05-10T09:08:25;17.30;99.90
6988;DHT22;3534;49.960;8.018;2023-05-10T09:10:54;17.30;99.90
6988;DHT22;3534;49.960;8.018;2023-05-10T09:13:23;17.30;99.90
6988;DHT22;3534;49.960;8.018;2023-05-10T09:15:49;17.20;99.90
6988;DHT22;3534;49.960;8.018;2023-05-10T09:18:17;17.20;99.90
6988;DHT22;3534;49.960;8.018;2023-05-10T09:20:44;17.30;99.90
6988;DHT22;3534;49.960;8.018;2023-05-10T09:23:10;17.20;99.90
6988;DHT22;3534;49.960;8.018;2023-05-10T09:25:37;17.20;99.90
6988;DHT22;3534;49.960;8.018;2023-05-10T09:28:07;17.30;99.90
6988;DHT22;3534;49.960;8.018;2023-05-10T09:30:34;17.30;99.90
6988;DHT22;3534;49.960;8.018;2023-05-10T09:33:01;17.50;99.90
6988;DHT22;3534;49.960;8.018;2023-05-10T09:35:30;17.50;99.90
6988;DHT22;3534;49.960;8.018;2023-05-10T09:37:59;17.70;99.90
6988;DHT22;3534;49.960;8.018;2023-05-10T09:40:27;17.70;99.90
6988;DHT22;3534;49.960;8.018;2023-05-10T09:42:56;17.70;99.90
6988;DHT22;3534;49.960;8.018;2023-05-10T09:45:25;17.70;99.90
6988;DHT22;3534;49.960;8.018;2023-05-10T09:47:52;17.70;99.90
6988;DHT22;3534;49.960;8.018;2023-05-10T09:50:20;17.80;99.90
6988;DHT22;3534;49.960;8.018;2023-05-10T09:52:48;18.00;99.90
6988;DHT22;3534;49.960;8.018;2023-05-10T09:55:16;18.00;99.90
6988;DHT22;3534;49.960;8.018;2023-05-10T09:57:43;18.00;99.90
6988;DHT22;3534;49.960;8.018;2023-05-10T10:00:10;18.00;99.90
6988;DHT22;3534;49.960;8.018;2023-05-10T10:02:45;17.90;99.90
6988;DHT22;3534;49.960;8.018;2023-05-10T10:05:12;18.00;99.90
6988;DHT22;3534;49.960;8.018;2023-05-10T10:07:39;18.00;99.90
6988;DHT22;3534;49.960;8.018;2023-05-10T10:10:07;18.10;99.90
6988;DHT22;3534;49.960;8.018;2023-05-10T10:12:36;18.20;99.90
6988;DHT22;3534;49.960;8.018;2023-05-10T10:15:04;18.20;99.90
6988;DHT22;3534;49.960;8.018;2023-05-10T10:17:32;18.20;99.90
6988;DHT22;3534;49.960;8.018;2023-05-10T10:20:04;18.30;99.90
6988;DHT22;3534;49.960;8.018;2023-05-10T10:22:31;18.30;99.90
6988;DHT22;3534;49.960;8.018;2023-05-10T10:24:58;18.20;99.90
6988;DHT22;3534;49.960;8.018;2023-05-10T10:27:32;18.20;99.90
6988;DHT22;3534;49.960;8.018;2023-05-10T10:30:06;18.20;99.90
6988;DHT22;3534;49.960;8.018;2023-05-10T10:32:47;18.20;99.90
6988;DHT22;3534;49.960;8.018;2023-05-10T10:35:20;18.20;99.90
6988;DHT22;3534;49.960;8.018;2023-05-10T10:37:48;18.20;99.90
6988;DHT22;3534;49.960;8.018;2023-05-10T10:40:26;18.30;99.90
6988;DHT22;3534;49.960;8.018;2023-05-10T10:42:53;18.40;99.90
6988;DHT22;3534;49.960;8.018;2023-05-10T10:45:21;18.50;99.90
6988;DHT22;3534;49.960;8.018;2023-05-10T10:47:48;18.60;99.90
6988;DHT22;3534;49.960;8.018;2023-05-10T10:50:15;18.70;99.90
6988;DHT22;3534;49.960;8.018;2023-05-10T10:52:45;18.70;99.90
6988;DHT22;3534;49.960;8.018;2023-05-10T10:55:17;18.80;99.90
6988;DHT22;3534;49.960;8.018;2023-05-10T10:57:46;18.90;99.90
6988;DHT22;3534;49.960;8.018;2023-05-10T11:00:27;18.90;99.90
6988;DHT22;3534;49.960;8.018;2023-05-10T11:02:57;18.80;99.90
6988;DHT22;3534;49.960;8.018;2023-05-10T11:05:26;18.90;99.90
6988;DHT22;3534;49.960;8.018;2023-05-10T11:08:07;18.80;99.90
6988;DHT22;3534;49.960;8.018;2023-05-10T11:10:34;18.90;99.90
6988;DHT22;3534;49.960;8.018;2023-05-10T11:13:02;18.80;99.90
6988;DHT22;3534;49.960;8.018;2023-05-10T11:15:29;18.90;99.90
6988;DHT22;3534;49.960;8.018;2023-05-10T11:17:56;18.90;99.90
6988;DHT22;3534;49.960;8.018;2023-05-10T11:20:23;19.00;99.90
6988;DHT22;3534;49.960;8.018;2023-05-10T11:23:11;19.00;99.90
6988;DHT22;3534;49.960;8.018;2023-05-10T11:25:41;19.00;99.90
6988;DHT22;3534;49.960;8.018;2023-05-10T11:28:09;19.10;99.90
6988;DHT22;3534;49.960;8.018;2023-05-10T11:30:36;19.20;99.90
6988;DHT22;3534;49.960;8.018;2023-05-10T11:33:05;19.20;99.90
6988;DHT22;3534;49.960;8.018;2023-05-10T11:35:37;19.20;99.90
6988;DHT22;3534;49.960;8.018;2023-05-10T11:38:06;19.30;99.90
6988;DHT22;3534;49.960;8.018;2023-05-10T11:40:33;19.30;99.90
6988;DHT22;3534;49.960;8.018;2023-05-10T11:43:00;19.20;99.90
6988;DHT22;3534;49.960;8.018;2023-05-10T11:45:27;19.10;99.90
6988;DHT22;3534;49.960;8.018;2023-05-10T11:47:54;19.20;99.90
6988;DHT22;3534;49.960;8.018;2023-05-10T11:50:21;19.10;99.90
6988;DHT22;3534;49.960;8.018;2023-05-10T11:52:50;19.00;99.90
6988;DHT22;3534;49.960;8.018;2023-05-10T11:55:19;19.00;99.90
6988;DHT22;3534;49.960;8.018;2023-05-10T11:57:46;19.00;99.90
6988;DHT22;3534;49.960;8.018;2023-05-10T12:00:13;19.00;99.90
6988;DHT22;3534;49.960;8.018;2023-05-10T12:02:40;19.00;99.90
6988;DHT22;3534;49.960;8.018;2023-05-10T12:05:08;19.10;99.90
6988;DHT22;3534;49.960;8.018;2023-05-10T12:07:35;19.20;99.90
6988;DHT22;3534;49.960;8.018;2023-05-10T12:10:09;19.20;99.90
6988;DHT22;3534;49.960;8.018;2023-05-10T12:12:40;19.20;99.90
6988;DHT22;3534;49.960;8.018;2023-05-10T12:15:11;19.20;99.90
6988;DHT22;3534;49.960;8.018;2023-05-10T12:17:38;19.10;99.90
6988;DHT22;3534;49.960;8.018;2023-05-10T12:20:16;19.20;99.90
6988;DHT22;3534;49.960;8.018;2023-05-10T12:22:47;19.30;99.90
6988;DHT22;3534;49.960;8.018;2023-05-10T12:25:15;19.30;99.90
6988;DHT22;3534;49.960;8.018;2023-05-10T12:27:50;19.30;99.90
6988;DHT22;3534;49.960;8.018;2023-05-10T12:30:21;19.30;99.90
6988;DHT22;3534;49.960;8.018;2023-05-10T12:32:48;19.30;99.90
6988;DHT22;3534;49.960;8.018;2023-05-10T12:35:15;19.30;99.90
6988;DHT22;3534;49.960;8.018;2023-05-10T12:37:42;19.40;99.90
6988;DHT22;3534;49.960;8.018;2023-05-10T12:40:10;19.40;99.90
6988;DHT22;3534;49.960;8.018;2023-05-10T12:42:38;19.40;99.90
6988;DHT22;3534;49.960;8.018;2023-05-10T12:45:08;19.50;99.90
6988;DHT22;3534;49.960;8.018;2023-05-10T12:47:35;19.50;99.90
6988;DHT22;3534;49.960;8.018;2023-05-10T12:50:02;19.40;99.90
6988;DHT22;3534;49.960;8.018;2023-05-10T12:52:29;19.30;99.90
6988;DHT22;3534;49.960;8.018;2023-05-10T12:54:57;19.20;99.90
6988;DHT22;3534;49.960;8.018;2023-05-10T12:57:24;19.20;99.90
6988;DHT22;3534;49.960;8.018;2023-05-10T12:59:51;19.20;99.90
6988;DHT22;3534;49.960;8.018;2023-05-10T13:02:19;19.20;99.90
6988;DHT22;3534;49.960;8.018;2023-05-10T13:04:46;19.30;99.90
6988;DHT22;3534;49.960;8.018;2023-05-10T13:07:13;19.50;99.90
6988;DHT22;3534;49.960;8.018;2023-05-10T13:09:40;19.60;99.90
6988;DHT22;3534;49.960;8.018;2023-05-10T13:12:06;19.70;99.90
6988;DHT22;3534;49.960;8.018;2023-05-10T13:14:33;19.70;99.90
6988;DHT22;3534;49.960;8.018;2023-05-10T13:17:00;19.80;99.90
6988;DHT22;3534;49.960;8.018;2023-05-10T13:19:28;20.00;99.90
6988;DHT22;3534;49.960;8.018;2023-05-10T13:21:54;20.30;99.90
6988;DHT22;3534;49.960;8.018;2023-05-10T13:24:21;20.60;99.90
6988;DHT22;3534;49.960;8.018;2023-05-10T13:26:48;20.90;99.90
6988;DHT22;3534;49.960;8.018;2023-05-10T13:29:14;21.00;99.90
6988;DHT22;3534;49.960;8.018;2023-05-10T13:31:43;21.10;99.90
6988;DHT22;3534;49.960;8.018;2023-05-10T13:34:10;21.20;99.90
6988;DHT22;3534;49.960;8.018;2023-05-10T13:36:38;21.30;99.90
6988;DHT22;3534;49.960;8.018;2023-05-10T13:39:05;21.40;99.90
6988;DHT22;3534;49.960;8.018;2023-05-10T13:41:31;21.40;99.90
6988;DHT22;3534;49.960;8.018;2023-05-10T13:43:58;21.40;99.90
6988;DHT22;3534;49.960;8.018;2023-05-10T13:46:25;21.60;99.90
6988;DHT22;3534;49.960;8.018;2023-05-10T13:48:51;21.70;99.90
6988;DHT22;3534;49.960;8.018;2023-05-10T13:51:18;21.90;99.90
6988;DHT22;3534;49.960;8.018;2023-05-10T13:53:46;22.20;99.90
6988;DHT22;3534;49.960;8.018;2023-05-10T13:56:13;22.50;99.90
6988;DHT22;3534;49.960;8.018;2023-05-10T13:58:40;22.60;99.90
6988;DHT22;3534;49.960;8.018;2023-05-10T14:01:07;22.50;99.90
6988;DHT22;3534;49.960;8.018;2023-05-10T14:03:33;22.50;99.90
6988;DHT22;3534;49.960;8.018;2023-05-10T14:06:00;22.40;99.90
6988;DHT22;3534;49.960;8.018;2023-05-10T14:08:27;22.40;99.90
6988;DHT22;3534;49.960;8.018;2023-05-10T14:10:55;22.50;99.90
6988;DHT22;3534;49.960;8.018;2023-05-10T14:13:23;22.60;99.90
6988;DHT22;3534;49.960;8.018;2023-05-10T14:15:50;22.60;99.90
6988;DHT22;3534;49.960;8.018;2023-05-10T14:18:17;22.70;99.90
6988;DHT22;3534;49.960;8.018;2023-05-10T14:20:43;22.80;99.90
6988;DHT22;3534;49.960;8.018;2023-05-10T14:23:10;23.00;99.90
6988;DHT22;3534;49.960;8.018;2023-05-10T14:25:38;23.00;99.90
6988;DHT22;3534;49.960;8.018;2023-05-10T14:28:06;23.00;99.90
6988;DHT22;3534;49.960;8.018;2023-05-10T14:30:33;23.00;99.90
6988;DHT22;3534;49.960;8.018;2023-05-10T14:32:59;23.00;99.90
6988;DHT22;3534;49.960;8.018;2023-05-10T14:35:26;22.90;99.90
6988;DHT22;3534;49.960;8.018;2023-05-10T14:37:53;22.90;99.90
6988;DHT22;3534;49.960;8.018;2023-05-10T14:40:20;22.80;99.90
6988;DHT22;3534;49.960;8.018;2023-05-10T14:42:47;22.80;99.90
6988;DHT22;3534;49.960;8.018;2023-05-10T14:45:15;22.60;99.90
6988;DHT22;3534;49.960;8.018;2023-05-10T14:47:41;22.60;99.90
6988;DHT22;3534;49.960;8.018;2023-05-10T14:50:08;22.70;99.90
6988;DHT22;3534;49.960;8.018;2023-05-10T14:52:35;22.90;99.90
6988;DHT22;3534;49.960;8.018;2023-05-10T14:55:02;23.10;99.90
6988;DHT22;3534;49.960;8.018;2023-05-10T14:57:28;23.30;99.90
6988;DHT22;3534;49.960;8.018;2023-05-10T14:59:55;23.50;99.90
6988;DHT22;3534;49.960;8.018;2023-05-10T15:02:23;23.80;99.90
6988;DHT22;3534;49.960;8.018;2023-05-10T15:04:50;23.90;99.90
6988;DHT22;3534;49.960;8.018;2023-05-10T15:07:17;23.90;99.90
6988;DHT22;3534;49.960;8.018;2023-05-10T15:09:44;23.80;99.90
6988;DHT22;3534;49.960;8.018;2023-05-10T15:12:10;23.70;99.90
6988;DHT22;3534;49.960;8.018;2023-05-10T15:14:37;23.60;99.90
6988;DHT22;3534;49.960;8.018;2023-05-10T15:17:06;23.60;99.90
6988;DHT22;3534;49.960;8.018;2023-05-10T15:19:35;23.50;99.90
6988;DHT22;3534;49.960;8.018;2023-05-10T15:22:02;23.40;99.90
6988;DHT22;3534;49.960;8.018;2023-05-10T15:24:28;23.30;99.90
6988;DHT22;3534;49.960;8.018;2023-05-10T15:26:55;23.10;99.90
6988;DHT22;3534;49.960;8.018;2023-05-10T15:29:22;23.10;99.90
6988;DHT22;3534;49.960;8.018;2023-05-10T15:31:50;23.40;99.90
6988;DHT22;3534;49.960;8.018;2023-05-10T15:34:17;23.60;99.90
6988;DHT22;3534;49.960;8.018;2023-05-10T15:36:45;23.80;99.90
6988;DHT22;3534;49.960;8.018;2023-05-10T15:39:12;24.10;99.90
6988;DHT22;3534;49.960;8.018;2023-05-10T15:41:38;24.30;99.90
6988;DHT22;3534;49.960;8.018;2023-05-10T15:44:05;24.20;99.90
6988;DHT22;3534;49.960;8.018;2023-05-10T15:46:31;24.10;99.90
6988;DHT22;3534;49.960;8.018;2023-05-10T15:48:58;24.00;99.90
6988;DHT22;3534;49.960;8.018;2023-05-10T15:51:25;23.90;99.90
6988;DHT22;3534;49.960;8.018;2023-05-10T15:53:53;23.70;99.90
6988;DHT22;3534;49.960;8.018;2023-05-10T15:56:20;23.70;99.90
6988;DHT22;3534;49.960;8.018;2023-05-10T15:58:47;23.80;99.90
6988;DHT22;3534;49.960;8.018;2023-05-10T16:01:15;23.90;99.90
6988;DHT22;3534;49.960;8.018;2023-05-10T16:03:41;24.00;99.90
6988;DHT22;3534;49.960;8.018;2023-05-10T16:06:08;24.00;99.90
6988;DHT22;3534;49.960;8.018;2023-05-10T16:08:35;24.10;99.90